GSE Systems Price to Book Ratio 2010-2024 | GVP

Historical price to book ratio values for GSE Systems (GVP) over the last 10 years. The current price to book ratio for GSE Systems as of July 12, 2024 is 2.97.

Please refer to the Stock Price Adjustment Guide for more information on our historical prices.

GSE Systems Price/Book Ratio Historical Data
Date Stock Price Book Value per Share Price to Book Ratio
2024-07-12 3.60 3.04
2024-03-31 2.34 $1.18 1.98
2023-12-31 2.01 $1.76 1.14
2023-09-30 2.02 $2.35 0.86
2023-06-30 3.60 $3.04 1.18
2023-03-31 6.95 $3.47 2.00
2022-12-31 7.20 $4.56 1.58
2022-09-30 9.00 $5.06 1.78
2022-06-30 12.50 $8.99 1.39
2022-03-31 20.80 $9.55 2.18
2021-12-31 17.10 $11.01 1.55
2021-09-30 14.70 $11.81 1.25
2021-06-30 17.90 $6.23 2.87
2021-03-31 17.00 $4.56 3.73
2020-12-31 13.20 $5.10 2.59
2020-09-30 10.40 $5.55 1.88
2020-06-30 10.10 $5.84 1.73
2020-03-31 9.30 $6.76 1.38
2019-12-31 16.50 $9.94 1.66
2019-09-30 17.50 $13.14 1.33
2019-06-30 23.40 $13.74 1.70
2019-03-31 28.00 $13.64 2.05
2018-12-31 21.00 $15.65 1.34
2018-09-30 36.00 $15.18 2.37
2018-06-30 32.50 $15.42 2.11
2018-03-31 32.50 $14.97 2.17
2017-12-31 32.50 $15.28 2.13
2017-09-30 35.50 $11.62 3.06
2017-06-30 31.00 $11.57 2.68
2017-03-31 34.00 $10.93 3.11
2016-12-31 35.00 $11.21 3.12
2016-09-30 28.89 $10.77 2.68
2016-06-30 22.30 $10.67 2.09
2016-03-31 27.30 $10.49 2.60
2015-12-31 24.00 $10.25 2.34
2015-09-30 14.90 $10.27 1.45
2015-06-30 15.50 $12.23 1.27
2015-03-31 15.00 $12.91 1.16
2014-12-31 15.90 $12.71 1.25
2014-09-30 15.60 $13.77 1.13
2014-06-30 16.60 $14.88 1.12
2014-03-31 17.40 $15.96 1.09
2013-12-31 16.00 $16.99 0.94
2013-09-30 15.70 $17.02 0.92
2013-06-30 15.10 $17.30 0.87
2013-03-31 20.00 $21.73 0.92
2012-12-31 21.60 $22.27 0.97
2012-09-30 20.30 $22.37 0.91
2012-06-30 23.00 $21.57 1.07
2012-03-31 23.80 $21.56 1.10
2011-12-31 19.50 $21.04 0.93
2011-09-30 17.60 $20.32 0.87
2011-06-30 21.60 $19.99 1.08
2011-03-31 22.60 $20.08 1.13
2010-12-31 36.20 $20.12 1.80
2010-09-30 33.50 $20.45 1.64
2010-06-30 40.60 $20.34 2.00
2010-03-31 54.10 $19.95 2.71
2009-12-31 54.80 $19.62 2.79
2009-09-30 62.20 $20.71 3.00
2009-06-30 67.50 $13.90 4.86
2009-03-31 59.50 $13.29 4.48
Sector Industry Market Cap Revenue
Computer and Technology Computer Software $0.011B $0.045B
GSE Systems, Inc. develops and delivers business and technology solutions by applying process control and simulation software, systems and services to the pharmaceutical and chemical research & development, energy, process and manufacturing industries worldwide. The company's products are used in the following industries: specialty chemical, food and beverage, petroleum refining, pharmaceutical, fossil and nuclear power generation, metals and water treatment. (PRESS RELEASE)
Stock Name Country Market Cap PE Ratio
Microsoft (MSFT) United States $3379.470B 39.37
Oracle (ORCL) United States $393.427B 31.94
Adobe (ADBE) United States $247.253B 40.00
Salesforce (CRM) United States $243.335B 36.24
Intuit (INTU) United States $175.950B 54.83
Synopsys (SNPS) United States $93.269B 64.28
Cadence Design Systems (CDNS) United States $85.560B 81.36
Autodesk (ADSK) United States $53.612B 48.87
Dassault Systemes SA (DASTY) France $49.214B 31.97
ANSYS (ANSS) United States $28.571B 52.87
MicroStrategy (MSTR) United States $24.097B 0.00
PTC (PTC) United States $21.518B 57.07
SS&C Technologies Holdings (SSNC) United States $15.549B 14.72
Manhattan Associates (MANH) United States $14.849B 78.81
Descartes Systems Group (DSGX) Canada $8.550B 71.53
Open Text (OTEX) Canada $8.475B 8.63
Trend Micro (TMICY) Japan $6.251B 45.27
CommVault Systems (CVLT) United States $5.383B 87.22
Pegasystems (PEGA) United States $4.980B 44.04
ACI Worldwide (ACIW) United States $4.237B 20.29
Blackbaud (BLKB) United States $3.977B 34.24
Progress Software (PRGS) United States $2.350B 15.09
Sapiens (SPNS) Israel $2.012B 27.43
Verint Systems (VRNT) United States $1.961B 18.37
BlackBerry (BB) Canada $1.464B 0.00
PROS Holdings (PRO) United States $1.186B 0.00
Simulations Plus (SLP) United States $0.826B 61.61
Rand Worldwide (RWWI) United States $0.663B 0.00
Magic Software Enterprises (MGIC) Israel $0.535B 11.35
American Software (AMSWA) United States $0.318B 27.26
Canaan (CAN) China $0.291B 0.00
OptimizeRx (OPRX) United States $0.181B 0.00
Rigetti Computing (RGTI) United States $0.175B 0.00
Neonode (NEON) Sweden $0.035B 0.00
Icad Inc (ICAD) United States $0.034B 0.00
NetSol Technologies (NTWK) United States $0.030B 0.00
Wetouch Technology (WETH) $0.026B 0.00
Smith Micro Software (SMSI) United States $0.022B 0.00
Hanryu Holdings (HRYU) South Korea $0.014B 0.00
SAP SE (SAP) Germany $0.000B 51.59